createdAt,value
2023-11-08T00:00:38.254Z,10.93
2023-11-08T00:03:42.904Z,10.98
2023-11-08T00:06:45.512Z,10.87
2023-11-08T00:09:48.097Z,10.91
2023-11-08T00:12:51.853Z,10.87
2023-11-08T00:15:54.297Z,10.90
2023-11-08T00:18:57.845Z,10.83
2023-11-08T00:22:00.313Z,10.92
2023-11-08T00:25:03.011Z,10.91
2023-11-08T00:28:05.689Z,10.95
2023-11-08T00:31:08.908Z,10.95
2023-11-08T00:34:14.248Z,11.00
2023-11-08T00:37:16.753Z,10.98
2023-11-08T00:40:20.205Z,11.02
2023-11-08T00:43:22.904Z,11.02
2023-11-08T00:46:26.596Z,11.01
2023-11-08T00:49:29.788Z,11.03
2023-11-08T00:52:32.144Z,11.05
2023-11-08T00:55:37.237Z,11.06
2023-11-08T00:58:42.479Z,11.06
2023-11-08T01:01:44.977Z,11.05
2023-11-08T01:04:47.635Z,11.03
2023-11-08T01:07:50.551Z,11.00
2023-11-08T01:10:53.159Z,11.04
2023-11-08T01:13:57.413Z,11.05
2023-11-08T01:17:00.816Z,11.00
2023-11-08T01:20:04.559Z,10.98
2023-11-08T01:23:07.070Z,10.99
2023-11-08T01:26:11.117Z,10.98
2023-11-08T01:29:13.931Z,10.96
2023-11-08T01:32:16.408Z,10.93
2023-11-08T01:35:21.725Z,10.94
2023-11-08T01:38:24.270Z,10.98
2023-11-08T01:41:26.694Z,10.97
2023-11-08T01:44:29.134Z,10.92
2023-11-08T01:47:36.246Z,10.88
2023-11-08T01:50:38.742Z,10.91
2023-11-08T01:53:42.597Z,10.86
2023-11-08T01:56:45.579Z,10.86
2023-11-08T01:59:48.507Z,10.81
2023-11-08T02:02:50.968Z,10.77
2023-11-08T02:05:53.367Z,10.85
2023-11-08T02:08:56.405Z,10.85
2023-11-08T02:12:01.762Z,10.85
2023-11-08T02:15:06.855Z,10.77
2023-11-08T02:18:10.436Z,10.62
2023-11-08T02:21:15.915Z,10.38
2023-11-08T02:24:20.115Z,10.16
2023-11-08T02:27:23.103Z,10.03
2023-11-08T02:30:25.937Z,10.00
2023-11-08T02:33:28.826Z,9.94
2023-11-08T02:36:31.507Z,9.94
2023-11-08T02:39:33.985Z,9.88
2023-11-08T02:42:36.718Z,9.89
2023-11-08T02:45:39.841Z,9.89
2023-11-08T02:48:43.830Z,9.85
2023-11-08T02:51:46.533Z,9.81
2023-11-08T02:54:52.348Z,9.82
2023-11-08T02:57:55.081Z,9.72
2023-11-08T03:00:58.221Z,9.71
2023-11-08T03:04:00.650Z,9.65
2023-11-08T03:07:04.011Z,9.61
2023-11-08T03:10:09.614Z,9.60
2023-11-08T03:13:12.010Z,9.47
2023-11-08T03:16:14.512Z,9.44
2023-11-08T03:19:17.294Z,9.43
2023-11-08T03:22:20.164Z,9.43
2023-11-08T03:25:22.805Z,9.36
2023-11-08T03:28:25.301Z,9.29
2023-11-08T03:31:28.554Z,9.25
2023-11-08T03:34:31.295Z,9.21
2023-11-08T03:37:41.065Z,9.17
2023-11-08T03:40:44.076Z,9.12
2023-11-08T03:43:46.567Z,9.13
2023-11-08T03:46:49.735Z,9.11
2023-11-08T03:49:53.184Z,9.08
2023-11-08T03:52:55.741Z,9.04
2023-11-08T03:56:00.223Z,9.03
2023-11-08T03:59:02.625Z,9.06
2023-11-08T04:02:05.299Z,9.03
2023-11-08T04:05:08.027Z,9.04
2023-11-08T04:08:11.440Z,9.04
2023-11-08T04:11:14.197Z,9.02
2023-11-08T04:14:16.599Z,8.98
2023-11-08T04:17:21.014Z,8.97
2023-11-08T04:20:24.501Z,9.00
2023-11-08T04:23:26.879Z,9.02
2023-11-08T04:26:31.766Z,9.05
2023-11-08T04:29:34.505Z,9.03
2023-11-08T04:32:37.943Z,9.01
2023-11-08T04:35:40.433Z,9.02
2023-11-08T04:38:46.225Z,9.01
2023-11-08T04:41:50.138Z,8.98
2023-11-08T04:44:53.930Z,9.04
2023-11-08T04:47:57.442Z,9.08
2023-11-08T04:51:01.089Z,9.04
2023-11-08T04:54:03.610Z,9.03
2023-11-08T04:57:06.194Z,9.04
2023-11-08T05:00:11.761Z,9.01
2023-11-08T05:03:14.420Z,9.03
2023-11-08T05:06:16.991Z,8.98
2023-11-08T05:09:20.804Z,9.02
2023-11-08T05:12:24.011Z,8.98
2023-11-08T05:15:27.256Z,9.01
2023-11-08T05:18:29.876Z,9.02
2023-11-08T05:21:33.419Z,9.01
2023-11-08T05:24:35.829Z,9.01
2023-11-08T05:27:38.270Z,9.00
2023-11-08T05:30:42.987Z,9.01
2023-11-08T05:33:45.877Z,8.95
2023-11-08T05:36:49.103Z,8.95
2023-11-08T05:39:54.532Z,8.96
2023-11-08T05:42:57.214Z,8.95
2023-11-08T05:45:59.894Z,8.92
2023-11-08T05:49:02.867Z,8.89
2023-11-08T05:52:05.445Z,8.94
2023-11-08T05:55:09.057Z,8.97
2023-11-08T05:58:14.434Z,9.01
2023-11-08T06:01:17.912Z,9.04
2023-11-08T06:04:20.792Z,9.02
2023-11-08T06:07:24.916Z,9.06
2023-11-08T06:10:27.743Z,9.10
2023-11-08T06:13:30.241Z,9.17
2023-11-08T06:16:32.785Z,9.25
2023-11-08T06:19:35.347Z,9.28
2023-11-08T06:22:38.057Z,9.36
2023-11-08T06:25:40.548Z,9.40
2023-11-08T06:28:43.033Z,9.48
2023-11-08T06:31:45.591Z,9.60
2023-11-08T06:34:50.002Z,9.67
2023-11-08T06:37:52.789Z,9.72
2023-11-08T06:40:55.558Z,9.83
2023-11-08T06:43:58.122Z,9.92
2023-11-08T06:47:00.683Z,9.94
2023-11-08T06:50:05.224Z,9.88
2023-11-08T06:53:09.847Z,9.78
2023-11-08T06:56:13.568Z,9.74
2023-11-08T06:59:16.030Z,9.64
2023-11-08T07:02:21.602Z,9.62
2023-11-08T07:05:30.381Z,9.62
2023-11-08T07:08:39.370Z,9.66
2023-11-08T07:11:43.215Z,9.69
2023-11-08T07:14:46.046Z,9.72
2023-11-08T07:17:48.883Z,9.77
2023-11-08T07:20:51.618Z,9.78
2023-11-08T07:23:54.207Z,9.80
2023-11-08T07:26:56.697Z,9.94
2023-11-08T07:29:59.824Z,9.94
2023-11-08T07:33:02.459Z,9.98
2023-11-08T07:36:08.248Z,10.11
2023-11-08T07:39:26.698Z,10.20
2023-11-08T07:42:34.094Z,10.63
2023-11-08T07:45:36.624Z,10.90
2023-11-08T07:48:39.256Z,10.93
2023-11-08T07:51:45.661Z,11.09
2023-11-08T07:54:48.990Z,11.53
2023-11-08T07:57:51.665Z,11.74
2023-11-08T08:00:54.294Z,12.10
2023-11-08T08:03:58.445Z,12.50
2023-11-08T08:07:09.564Z,12.66
2023-11-08T08:10:13.907Z,12.86
2023-11-08T08:13:24.097Z,12.96
2023-11-08T08:16:37.687Z,13.04
2023-11-08T08:19:40.097Z,12.95
2023-11-08T08:22:42.537Z,12.54
2023-11-08T08:25:44.893Z,12.44
2023-11-08T08:28:47.494Z,12.07
2023-11-08T08:31:51.222Z,12.14
2023-11-08T08:34:53.689Z,12.19
2023-11-08T08:37:56.339Z,12.38
2023-11-08T08:40:58.734Z,12.37
2023-11-08T08:44:01.088Z,12.60
2023-11-08T08:47:03.581Z,12.62
2023-11-08T08:50:07.375Z,12.68
2023-11-08T08:53:09.806Z,12.83
2023-11-08T08:56:13.240Z,12.83
2023-11-08T08:59:15.694Z,12.93
2023-11-08T09:02:20.727Z,13.12
2023-11-08T09:05:28.449Z,12.85
2023-11-08T09:08:37.016Z,13.02
2023-11-08T09:11:42.472Z,13.17
2023-11-08T09:14:53.975Z,13.37
2023-11-08T09:17:56.753Z,12.77
2023-11-08T09:20:59.533Z,12.86
2023-11-08T09:24:03.420Z,12.94
2023-11-08T09:27:08.558Z,13.21
2023-11-08T09:30:11.458Z,13.24
2023-11-08T09:33:14.823Z,13.04
2023-11-08T09:36:19.949Z,13.48
2023-11-08T09:39:25.733Z,13.16
2023-11-08T09:42:31.414Z,13.16
2023-11-08T09:45:34.170Z,13.38
2023-11-08T09:48:36.671Z,14.00
2023-11-08T09:51:39.814Z,14.11
2023-11-08T09:54:46.103Z,14.47
2023-11-08T09:57:50.145Z,14.42
2023-11-08T10:00:56.709Z,14.53
2023-11-08T10:03:59.362Z,14.56
2023-11-08T10:07:01.892Z,14.74
2023-11-08T10:10:04.794Z,14.65
2023-11-08T10:13:07.793Z,14.36
2023-11-08T10:16:10.719Z,14.37
2023-11-08T10:19:37.279Z,13.90
2023-11-08T10:22:36.422Z,13.90
2023-11-08T10:25:40.273Z,13.15
2023-11-08T10:29:00.271Z,13.54
2023-11-08T10:32:04.300Z,13.38
2023-11-08T10:35:22.725Z,13.14
2023-11-08T10:38:25.182Z,13.14
2023-11-08T10:41:28.850Z,13.39
2023-11-08T10:44:31.249Z,13.98
2023-11-08T10:47:33.682Z,14.19
2023-11-08T10:50:36.090Z,14.70
2023-11-08T10:53:40.596Z,15.02
2023-11-08T10:56:44.994Z,15.23
2023-11-08T10:59:51.619Z,14.30
2023-11-08T11:03:12.676Z,14.00
2023-11-08T11:06:15.194Z,14.13
2023-11-08T11:09:17.677Z,14.60
2023-11-08T11:12:21.825Z,14.97
2023-11-08T11:15:51.611Z,15.02
2023-11-08T11:19:01.187Z,15.26
2023-11-08T11:22:09.122Z,15.29
2023-11-08T11:25:13.689Z,15.31
2023-11-08T11:28:37.112Z,15.25
2023-11-08T11:31:42.219Z,15.16
2023-11-08T11:34:45.464Z,15.20
2023-11-08T11:38:14.595Z,15.00
2023-11-08T11:41:26.303Z,14.65
2023-11-08T11:44:50.718Z,14.52
2023-11-08T11:47:54.501Z,14.60
2023-11-08T11:50:56.930Z,14.49
2023-11-08T11:53:59.781Z,14.42
2023-11-08T11:57:03.858Z,14.30
2023-11-08T12:00:10.393Z,14.23
2023-11-08T12:03:13.082Z,14.29
2023-11-08T12:06:17.441Z,14.44
2023-11-08T12:09:20.715Z,14.47
2023-11-08T12:12:28.374Z,14.60
2023-11-08T12:15:33.482Z,14.77
2023-11-08T12:18:36.420Z,15.05
2023-11-08T12:21:38.710Z,15.15
2023-11-08T12:24:41.189Z,15.31
2023-11-08T12:27:44.239Z,15.37
2023-11-08T12:30:47.357Z,15.38
2023-11-08T12:33:50.590Z,15.31
2023-11-08T12:36:54.359Z,15.01
2023-11-08T12:40:19.775Z,15.47
2023-11-08T12:43:57.773Z,14.55
2023-11-08T12:46:53.038Z,15.11
2023-11-08T12:50:02.704Z,14.53
2023-11-08T12:53:10.205Z,15.28
2023-11-08T12:56:13.666Z,14.95
2023-11-08T12:59:20.118Z,15.17
2023-11-08T13:02:22.564Z,15.54
2023-11-08T13:05:25.392Z,15.91
2023-11-08T13:08:28.799Z,16.38
2023-11-08T13:11:34.867Z,17.01
2023-11-08T13:14:37.508Z,20.53
2023-11-08T13:17:39.966Z,22.09
2023-11-08T13:20:46.918Z,27.06
2023-11-08T13:24:02.584Z,26.57
2023-11-08T13:27:09.737Z,29.77
2023-11-08T13:30:14.301Z,25.24
2023-11-08T13:33:16.947Z,24.06
2023-11-08T13:36:27.820Z,21.06
2023-11-08T13:39:31.050Z,17.99
2023-11-08T13:42:34.957Z,16.61
2023-11-08T13:45:38.562Z,15.98
2023-11-08T13:48:41.080Z,15.39
2023-11-08T13:51:43.904Z,14.75
2023-11-08T13:54:47.229Z,14.45
2023-11-08T13:57:50.481Z,14.27
2023-11-08T14:00:53.215Z,13.91
2023-11-08T14:03:55.749Z,13.68
2023-11-08T14:06:58.593Z,13.59
2023-11-08T14:10:01.517Z,13.60
2023-11-08T14:13:05.041Z,13.57
2023-11-08T14:16:08.957Z,13.32
2023-11-08T14:19:11.614Z,13.24
2023-11-08T14:22:14.534Z,13.03
2023-11-08T14:25:16.853Z,13.47
2023-11-08T14:28:20.294Z,12.98
2023-11-08T14:31:25.251Z,12.65
2023-11-08T14:34:29.189Z,12.43
2023-11-08T14:37:32.344Z,12.30
2023-11-08T14:40:34.603Z,12.16
2023-11-08T14:43:54.853Z,12.00
2023-11-08T14:47:21.945Z,11.80
2023-11-08T14:50:27.202Z,11.66
2023-11-08T14:53:29.845Z,11.57
2023-11-08T14:56:32.565Z,11.54
2023-11-08T14:59:34.929Z,11.58
2023-11-08T15:02:37.614Z,11.51
2023-11-08T15:05:40.842Z,11.31
2023-11-08T15:09:50.950Z,11.22
2023-11-08T15:12:09.354Z,11.15
2023-11-08T15:15:12.011Z,10.97
2023-11-08T15:18:14.556Z,10.93
2023-11-08T15:21:17.505Z,10.84
2023-11-08T15:24:19.938Z,10.75
2023-11-08T15:27:22.557Z,10.62
2023-11-08T15:30:25.258Z,10.57
2023-11-08T15:33:27.608Z,10.49
2023-11-08T15:36:30.208Z,10.42
2023-11-08T15:39:32.741Z,10.24
2023-11-08T15:42:35.273Z,10.07
2023-11-08T15:45:38.169Z,9.88
2023-11-08T15:48:40.681Z,9.79
2023-11-08T15:51:43.246Z,9.67
2023-11-08T15:54:46.141Z,9.56
2023-11-08T15:57:48.691Z,9.42
2023-11-08T16:00:52.503Z,9.33
2023-11-08T16:03:56.256Z,9.18
2023-11-08T16:06:59.003Z,9.07
2023-11-08T16:10:01.713Z,8.96
2023-11-08T16:13:05.707Z,8.86
2023-11-08T16:16:09.106Z,8.78
2023-11-08T16:19:12.541Z,8.66
2023-11-08T16:22:15.157Z,8.56
2023-11-08T16:25:18.324Z,8.44
2023-11-08T16:28:21.253Z,8.35
2023-11-08T16:32:31.466Z,8.25
2023-11-08T16:34:50.267Z,8.18
2023-11-08T16:37:53.186Z,8.09
2023-11-08T16:40:56.075Z,8.08
2023-11-08T16:43:58.511Z,8.08
2023-11-08T16:47:01.181Z,8.10
2023-11-08T16:50:04.158Z,8.07
2023-11-08T16:53:10.666Z,8.02
2023-11-08T16:56:13.057Z,7.95
2023-11-08T16:59:15.468Z,7.88
2023-11-08T17:02:18.159Z,7.84
2023-11-08T17:05:20.799Z,7.78
2023-11-08T17:08:24.679Z,7.76
2023-11-08T17:11:27.071Z,7.69
2023-11-08T17:14:29.526Z,7.63
2023-11-08T17:17:31.988Z,7.52
2023-11-08T17:20:35.446Z,7.50
2023-11-08T17:23:38.399Z,7.45
2023-11-08T17:26:40.792Z,7.40
2023-11-08T17:29:43.315Z,7.32
2023-11-08T17:32:45.819Z,7.29
2023-11-08T17:35:48.707Z,7.25
2023-11-08T17:38:52.274Z,7.15
2023-11-08T17:41:54.983Z,7.08
2023-11-08T17:44:57.365Z,7.04
2023-11-08T17:48:00.225Z,7.05
2023-11-08T17:51:04.248Z,6.99
2023-11-08T17:54:07.059Z,6.92
2023-11-08T17:57:09.508Z,6.86
2023-11-08T18:00:12.535Z,6.83
2023-11-08T18:03:14.995Z,6.77
2023-11-08T18:06:18.185Z,6.78
2023-11-08T18:09:20.966Z,6.76
2023-11-08T18:12:24.844Z,6.69
2023-11-08T18:15:27.426Z,6.60
2023-11-08T18:18:29.896Z,6.57
2023-11-08T18:21:32.259Z,6.49
2023-11-08T18:24:40.009Z,6.40
2023-11-08T18:27:42.703Z,6.34
2023-11-08T18:30:45.307Z,6.28
2023-11-08T18:33:52.041Z,6.21
2023-11-08T18:37:12.941Z,6.24
2023-11-08T18:40:15.420Z,6.24
2023-11-08T18:43:18.187Z,6.19
2023-11-08T18:47:10.900Z,6.07
2023-11-08T18:50:17.235Z,6.12
2023-11-08T18:53:30.755Z,6.13
2023-11-08T18:56:33.110Z,6.06
2023-11-08T18:59:35.529Z,5.97
2023-11-08T19:03:06.886Z,5.94
2023-11-08T19:06:11.447Z,5.89
2023-11-08T19:09:15.659Z,5.94
2023-11-08T19:12:18.067Z,5.91
2023-11-08T19:15:20.607Z,5.87
2023-11-08T19:18:24.512Z,5.86
2023-11-08T19:21:28.690Z,5.79
2023-11-08T19:24:31.123Z,5.77
2023-11-08T19:27:34.132Z,5.72
2023-11-08T19:30:36.750Z,5.66
2023-11-08T19:33:39.290Z,5.65
2023-11-08T19:36:41.812Z,5.58
2023-11-08T19:39:44.290Z,5.54
2023-11-08T19:42:46.753Z,5.51
2023-11-08T19:45:49.674Z,5.47
2023-11-08T19:48:52.479Z,5.45
2023-11-08T19:51:55.070Z,5.37
2023-11-08T19:54:57.688Z,5.39
2023-11-08T19:58:01.158Z,5.35
2023-11-08T20:01:03.977Z,5.39
2023-11-08T20:04:09.174Z,5.37
2023-11-08T20:07:11.682Z,5.41
2023-11-08T20:10:14.299Z,5.37
2023-11-08T20:13:16.984Z,5.24
2023-11-08T20:16:19.552Z,5.26
2023-11-08T20:19:22.563Z,5.24
2023-11-08T20:22:25.066Z,5.23
2023-11-08T20:25:27.920Z,5.18
2023-11-08T20:28:30.607Z,5.18
2023-11-08T20:31:33.197Z,5.20
2023-11-08T20:34:37.099Z,5.14
2023-11-08T20:37:40.561Z,5.17
2023-11-08T20:40:44.296Z,5.10
2023-11-08T20:43:46.765Z,5.09
2023-11-08T20:46:51.773Z,5.03
2023-11-08T20:49:54.577Z,4.99
2023-11-08T20:52:57.346Z,5.04
2023-11-08T20:56:00.014Z,5.04
2023-11-08T20:59:03.048Z,5.02
2023-11-08T21:02:05.652Z,5.04
2023-11-08T21:05:08.727Z,5.15
2023-11-08T21:08:11.148Z,5.14
2023-11-08T21:11:13.640Z,5.16
2023-11-08T21:14:17.153Z,5.20
2023-11-08T21:17:19.636Z,5.27
2023-11-08T21:20:22.349Z,5.30
2023-11-08T21:23:24.789Z,5.37
2023-11-08T21:26:27.349Z,5.46
2023-11-08T21:29:29.791Z,5.50
2023-11-08T21:32:32.560Z,5.53
2023-11-08T21:35:35.123Z,5.55
2023-11-08T21:38:37.696Z,5.51
2023-11-08T21:41:40.122Z,5.52
2023-11-08T21:44:43.620Z,5.54
2023-11-08T21:47:46.310Z,5.49
2023-11-08T21:50:48.996Z,5.49
2023-11-08T21:53:51.595Z,5.43
2023-11-08T21:56:53.993Z,5.36
2023-11-08T21:59:56.534Z,5.36
2023-11-08T22:02:59.708Z,5.31
2023-11-08T22:06:02.214Z,5.30
2023-11-08T22:09:05.076Z,5.25
2023-11-08T22:12:08.012Z,5.10
2023-11-08T22:15:13.256Z,5.08
2023-11-08T22:18:15.926Z,5.08
2023-11-08T22:21:18.334Z,5.00
2023-11-08T22:24:20.780Z,4.96
2023-11-08T22:27:23.927Z,4.84
2023-11-08T22:30:26.348Z,4.90
2023-11-08T22:33:28.728Z,4.80
2023-11-08T22:36:31.178Z,4.74
2023-11-08T22:39:36.652Z,4.64
2023-11-08T22:42:39.522Z,4.69
2023-11-08T22:45:41.955Z,4.64
2023-11-08T22:48:44.465Z,4.61
2023-11-08T22:51:47.202Z,4.55
2023-11-08T22:54:49.779Z,4.54
2023-11-08T22:57:52.854Z,4.52
2023-11-08T23:00:56.531Z,4.49
2023-11-08T23:04:01.996Z,4.36
2023-11-08T23:07:04.740Z,4.37
2023-11-08T23:10:08.412Z,4.34
2023-11-08T23:13:10.920Z,4.29
2023-11-08T23:16:13.635Z,4.28
2023-11-08T23:19:16.180Z,4.30
2023-11-08T23:22:19.445Z,4.17
2023-11-08T23:25:21.919Z,4.15
2023-11-08T23:28:24.613Z,4.16
2023-11-08T23:31:27.238Z,4.13
2023-11-08T23:34:29.987Z,4.11
2023-11-08T23:37:32.811Z,4.09
2023-11-08T23:40:35.231Z,4.09
2023-11-08T23:43:37.725Z,4.02
2023-11-08T23:46:40.264Z,4.05
2023-11-08T23:49:42.767Z,4.01
2023-11-08T23:52:47.142Z,3.97
2023-11-08T23:55:49.625Z,3.97
2023-11-08T23:58:52.086Z,3.84
